Home > Products > Valid Products > MTR

000
SAUS43 KDLH 282257
MTRGNA
METAR KGNA 282256Z AUTO 00000KT 09/07 A2979 RMK AO1 SLP089 T00890072





000
SAUS43 KDLH 280557
MTRGNA
METAR KGNA 280556Z AUTO 04010G19KT 16/13 A2980 RMK AO1 SLP093 P0002
60029 T01560133 10156 20050 401560050 58025





000
SAUS43 KDLH 280057
MTRGNA
METAR KGNA 280056Z AUTO 00000KT 07/06 A2987 RMK AO1 SLP119 P0001
T00720061





000
SAUS43 KDLH 272358
MTRGNA
METAR KGNA 272356Z AUTO 18003KT 07/06 A2989 RMK AO1 SLP125 60001
T00720056 10106 20056 55010





000
SAUS43 KDLH 271857
MTRGNA
METAR KGNA 271856Z AUTO 00000KT 07/06 A2994 RMK AO1 SLP144 T00720056





000
SAUS43 KDLH 271757
MTRGNA
METAR KGNA 271756Z AUTO VRB04KT 07/06 A2993 RMK AO1 SLP140 T00670056
10083 20050 55001





000
SAUS43 KDLH 271658
MTRGNA
METAR KGNA 271656Z AUTO 06004KT 07/06 A2990 RMK AO1 SLP130 T00720061





000
SAUS43 KDLH 271457
MTRGNA
METAR KGNA 271456Z AUTO 12003KT 06/06 A2993 RMK AO1 SLP140 T00560056
53009





000
SAUS43 KDLH 271057
MTRGNA
METAR KGNA 271056Z AUTO 25003KT 06/05 A2988 RMK AO1 SLP122 T00560050





000
SAUS43 KDLH 270657
MTRGNA
METAR KGNA 270656Z AUTO 24003KT 07/06 A2985 RMK AO1 SLP114 T00670061





000
SAUS43 KDLH 270457
MTRGNA
METAR KGNA 270456Z AUTO 00000KT 08/07 A2983 RMK AO1 SLP107 T00780072





000
SAUS43 KDLH 270058
MTRGNA
METAR KGNA 270056Z AUTO 00000KT 09/08 A2982 RMK AO1 SLP099 T00890078





000
SAUS43 KDLH 262357
MTRGNA
METAR KGNA 262356Z AUTO 07004KT 09/08 A2976 RMK AO1 SLP080 T00890078
10094 20067 58016





000
SAUS43 KDLH 262158
MTRGNA
METAR KGNA 262156Z AUTO 24007KT 08/06 A2982 RMK AO1 SLP101 T00780061





000
SAUS43 KDLH 261757
MTRGNA
METAR KGNA 261756Z AUTO 09004KT 07/07 A2982 RMK AO1 SLP102 P0001
60005 T00720067 10089 20067 50001





000
SAUS43 KDLH 261157
MTRGNA
METAR KGNA 261156Z AUTO 06003KT 09/07 A2984 RMK AO1 SLP106 T00890072
10128 20083 55002





000
SAUS43 KDLH 261057
MTRGNA
METAR KGNA 261056Z AUTO 05004KT 09/08 A2980 RMK AO1 SLP093 T00890078





000
SAUS43 KDLH 260357
MTRGNA
METAR KGNA 260356Z AUTO 07011G20KT 08/06 A2991 RMK AO1 SLP134
T00830056





000
SAUS43 KDLH 260258
MTRGNA
METAR KGNA 260256Z AUTO 04004KT 09/06 A2995 RMK AO1 SLP146 T00890061
53001





000
SAUS43 KDLH 260157
MTRGNA
METAR KGNA 260156Z AUTO 05006KT 09/06 A2994 RMK AO1 SLP144 T00940061





    US Dept of Commerce
    National Oceanic and Atmospheric Administration
    National Weather Service
    1325 East West Highway
    Silver Spring, MD 20910
    Page Author: NWS Internet Services Team
Disclaimer
Information Quality
Credits
Glossary
Privacy Policy
Freedom of Information Act (FOIA)
About Us
Career Opportunities